Terminal Aerodrome Forecast
Issued by NWS Milwaukee/Sullivan, WI

Home | Current Version | Previous Version | Text Only | Print | Product List | Glossary On
Versions: 1 2 3 4 5 6 7 8 9 10 11 12 13 14 15 16 17 18 19 20 21 22 23 24 25 26 27 28 29 30 31 32 33 34 35 36 37 38 39 40 41 42 43
000
FTUS43 KMKX 140520
TAFMSN
TAF
KMSN 140520Z 1406/1506 13004KT P6SM OVC250
     FM141200 14006KT P6SM OVC100
     FM141400 14007KT P6SM VCSH OVC090
     FM141600 15010KT P6SM -SN OVC040
     FM141800 14011KT 2SM -SN OVC025
     FM142000 14012KT 1SM -SN OVC020
     FM150400 15008KT 3SM -SN OVC020=

USA.gov is the U.S. government's official web portal to all federal, state and local government web resources and services.